createdAt,value
2024-04-09T00:00:51.058Z,17.09
2024-04-09T00:03:18.209Z,17.10
2024-04-09T00:05:47.774Z,17.09
2024-04-09T00:08:15.169Z,17.09
2024-04-09T00:10:44.642Z,17.09
2024-04-09T00:13:11.523Z,17.09
2024-04-09T00:15:43.855Z,17.08
2024-04-09T00:18:12.986Z,17.07
2024-04-09T00:20:43.401Z,17.06
2024-04-09T00:23:13.713Z,17.04
2024-04-09T00:25:43.225Z,17.04
2024-04-09T00:28:11.082Z,17.02
2024-04-09T00:30:46.476Z,16.98
2024-04-09T00:33:16.052Z,16.97
2024-04-09T00:35:45.834Z,16.95
2024-04-09T00:38:15.873Z,16.94
2024-04-09T00:40:47.025Z,16.91
2024-04-09T00:43:14.002Z,16.89
2024-04-09T00:45:47.660Z,16.90
2024-04-09T00:48:15.152Z,16.86
2024-04-09T00:50:46.830Z,16.86
2024-04-09T00:53:14.471Z,16.86
2024-04-09T00:55:45.496Z,16.85
2024-04-09T00:58:13.173Z,16.75
2024-04-09T01:00:44.504Z,16.84
2024-04-09T01:03:14.589Z,16.82
2024-04-09T01:05:44.368Z,16.83
2024-04-09T01:08:11.466Z,16.81
2024-04-09T01:10:41.168Z,16.81
2024-04-09T01:13:08.440Z,16.80
2024-04-09T01:15:38.101Z,16.79
2024-04-09T01:18:05.691Z,16.78
2024-04-09T01:20:38.198Z,16.78
2024-04-09T01:23:08.799Z,16.77
2024-04-09T01:25:38.401Z,16.75
2024-04-09T01:28:05.603Z,16.74
2024-04-09T01:30:35.554Z,16.75
2024-04-09T01:33:03.184Z,16.73
2024-04-09T01:35:33.294Z,16.73
2024-04-09T01:38:00.303Z,16.73
2024-04-09T01:40:32.432Z,16.72
2024-04-09T01:42:59.386Z,16.69
2024-04-09T01:45:29.776Z,16.72
2024-04-09T01:47:57.024Z,16.71
2024-04-09T01:50:27.182Z,16.71
2024-04-09T01:52:54.953Z,16.70
2024-04-09T01:55:24.522Z,16.69
2024-04-09T01:57:54.021Z,16.69
2024-04-09T02:00:23.833Z,16.68
2024-04-09T02:02:53.879Z,16.67
2024-04-09T02:05:23.949Z,16.67
2024-04-09T02:07:50.848Z,16.67
2024-04-09T02:10:20.494Z,16.65
2024-04-09T02:12:47.461Z,16.64
2024-04-09T02:15:19.975Z,16.63
2024-04-09T02:20:16.868Z,16.60
2024-04-09T02:22:43.801Z,16.59
2024-04-09T02:25:13.339Z,16.59
2024-04-09T02:27:40.592Z,16.56
2024-04-09T02:30:11.801Z,16.55
2024-04-09T02:32:41.471Z,16.53
2024-04-09T02:35:12.413Z,16.52
2024-04-09T02:37:40.304Z,16.49
2024-04-09T02:40:17.067Z,16.48
2024-04-09T02:42:45.133Z,16.47
2024-04-09T02:45:15.301Z,16.45
2024-04-09T02:47:45.077Z,16.43
2024-04-09T02:50:17.214Z,16.42
2024-04-09T02:52:44.189Z,16.41
2024-04-09T02:55:13.705Z,16.40
2024-04-09T02:57:40.739Z,16.38
2024-04-09T03:00:20.349Z,16.37
2024-04-09T03:02:54.719Z,16.32
2024-04-09T03:05:31.548Z,16.34
2024-04-09T03:07:58.532Z,16.33
2024-04-09T03:10:28.342Z,16.32
2024-04-09T03:12:55.208Z,16.32
2024-04-09T03:15:25.460Z,16.31
2024-04-09T03:17:55.801Z,16.31
2024-04-09T03:20:25.453Z,16.30
2024-04-09T03:22:52.843Z,16.25
2024-04-09T03:25:22.351Z,16.30
2024-04-09T03:27:49.221Z,16.30
2024-04-09T03:30:18.972Z,16.29
2024-04-09T03:32:46.021Z,16.30
2024-04-09T03:35:18.282Z,16.29
2024-04-09T03:37:48.372Z,16.29
2024-04-09T03:40:18.070Z,16.28
2024-04-09T03:42:49.243Z,16.29
2024-04-09T03:45:16.201Z,16.26
2024-04-09T03:47:45.840Z,16.27
2024-04-09T03:50:15.587Z,16.26
2024-04-09T03:52:45.036Z,16.25
2024-04-09T03:55:12.594Z,16.24
2024-04-09T03:57:42.575Z,16.24
2024-04-09T04:00:13.753Z,16.24
2024-04-09T04:02:43.709Z,16.22
2024-04-09T04:05:11.814Z,16.19
2024-04-09T04:07:44.404Z,16.20
2024-04-09T04:10:14.897Z,16.18
2024-04-09T04:12:44.566Z,16.18
2024-04-09T04:15:12.715Z,16.18
2024-04-09T04:17:42.430Z,16.15
2024-04-09T04:20:10.859Z,16.16
2024-04-09T04:22:40.453Z,16.15
2024-04-09T04:25:11.639Z,16.13
2024-04-09T04:27:41.223Z,16.11
2024-04-09T04:30:09.177Z,16.10
2024-04-09T04:32:39.159Z,16.09
2024-04-09T04:35:07.027Z,16.07
2024-04-09T04:37:36.565Z,16.06
2024-04-09T04:40:04.274Z,16.04
2024-04-09T04:42:36.780Z,16.02
2024-04-09T04:45:03.837Z,16.02
2024-04-09T04:47:33.467Z,16.02
2024-04-09T04:50:00.626Z,16.00
2024-04-09T04:52:30.234Z,15.98
2024-04-09T04:54:58.728Z,16.07
2024-04-09T04:57:28.427Z,16.04
2024-04-09T04:59:58.132Z,16.01
2024-04-09T05:02:29.417Z,16.00
2024-04-09T05:04:56.379Z,15.97
2024-04-09T05:07:25.879Z,15.95
2024-04-09T05:09:52.758Z,15.93
2024-04-09T05:12:22.274Z,15.92
2024-04-09T05:14:52.145Z,15.92
2024-04-09T05:17:21.646Z,16.00
2024-04-09T05:19:52.166Z,15.97
2024-04-09T05:22:20.662Z,15.90
2024-04-09T05:24:51.480Z,15.90
2024-04-09T05:27:18.582Z,15.93
2024-04-09T05:29:48.168Z,15.89
2024-04-09T05:32:16.375Z,15.85
2024-04-09T05:34:48.832Z,15.83
2024-04-09T05:37:16.977Z,15.88
2024-04-09T05:39:46.838Z,15.84
2024-04-09T05:42:14.031Z,15.78
2024-04-09T05:44:43.634Z,15.77
2024-04-09T05:47:10.704Z,15.77
2024-04-09T05:49:40.460Z,15.74
2024-04-09T05:52:10.044Z,15.79
2024-04-09T05:54:43.567Z,15.77
2024-04-09T05:57:10.644Z,15.74
2024-04-09T05:59:40.317Z,15.73
2024-04-09T06:02:07.728Z,15.68
2024-04-09T06:04:38.492Z,15.65
2024-04-09T06:07:05.845Z,15.72
2024-04-09T06:09:38.035Z,15.77
2024-04-09T06:12:05.635Z,15.71
2024-04-09T06:14:35.295Z,15.63
2024-04-09T06:17:02.254Z,15.55
2024-04-09T06:19:32.044Z,15.63
2024-04-09T06:21:59.143Z,15.69
2024-04-09T06:24:28.841Z,15.59
2024-04-09T06:26:58.827Z,15.73
2024-04-09T06:29:31.477Z,15.62
2024-04-09T06:31:58.409Z,15.50
2024-04-09T06:34:27.950Z,15.49
2024-04-09T06:36:55.025Z,15.46
2024-04-09T06:39:26.090Z,15.43
2024-04-09T06:41:53.169Z,15.51
2024-04-09T06:44:25.301Z,15.52
2024-04-09T06:46:52.986Z,15.45
2024-04-09T06:49:22.628Z,15.41
2024-04-09T06:51:49.564Z,15.43
2024-04-09T06:54:19.169Z,15.40
2024-04-09T06:56:46.072Z,15.39
2024-04-09T06:59:15.518Z,15.42
2024-04-09T07:01:45.184Z,15.41
2024-04-09T07:04:14.876Z,15.41
2024-04-09T07:06:42.311Z,15.41
2024-04-09T07:09:18.418Z,15.57
2024-04-09T07:11:46.160Z,15.46
2024-04-09T07:14:16.001Z,15.72
2024-04-09T07:16:48.160Z,15.75
2024-04-09T07:19:17.973Z,15.62
2024-04-09T07:21:44.997Z,15.56
2024-04-09T07:24:14.548Z,15.54
2024-04-09T07:26:41.447Z,15.57
2024-04-09T07:29:13.536Z,15.60
2024-04-09T07:31:41.915Z,15.67
2024-04-09T07:34:14.123Z,15.60
2024-04-09T07:36:41.094Z,15.80
2024-04-09T07:39:16.099Z,15.79
2024-04-09T07:41:43.248Z,15.74
2024-04-09T07:44:12.715Z,15.70
2024-04-09T07:46:41.487Z,15.69
2024-04-09T07:49:13.366Z,15.94
2024-04-09T07:51:44.503Z,15.71
2024-04-09T07:54:14.574Z,15.72
2024-04-09T07:56:41.461Z,15.83
2024-04-09T07:59:10.972Z,15.66
2024-04-09T08:01:37.935Z,15.68
2024-04-09T08:04:08.804Z,15.59
2024-04-09T08:06:36.357Z,15.55
2024-04-09T08:09:12.469Z,15.64
2024-04-09T08:11:43.640Z,15.83
2024-04-09T08:14:13.575Z,15.81
2024-04-09T08:16:40.589Z,15.79
2024-04-09T08:19:10.269Z,15.93
2024-04-09T08:21:37.373Z,15.95
2024-04-09T08:24:09.725Z,16.05
2024-04-09T08:26:36.989Z,15.78
2024-04-09T08:29:07.754Z,15.76
2024-04-09T08:31:37.316Z,16.02
2024-04-09T08:34:05.378Z,15.93
2024-04-09T08:36:35.173Z,15.69
2024-04-09T08:39:02.267Z,15.53
2024-04-09T08:41:35.615Z,15.41
2024-04-09T08:44:05.356Z,15.46
2024-04-09T08:46:36.222Z,15.53
2024-04-09T08:49:04.494Z,15.61
2024-04-09T08:51:35.043Z,15.45
2024-04-09T08:54:02.734Z,15.37
2024-04-09T08:56:34.886Z,15.61
2024-04-09T08:59:05.658Z,15.42
2024-04-09T09:01:35.342Z,15.32
2024-04-09T09:04:02.502Z,15.24
2024-04-09T09:06:32.453Z,15.60
2024-04-09T09:08:59.993Z,15.47
2024-04-09T09:11:29.858Z,15.89
2024-04-09T09:14:08.623Z,15.91
2024-04-09T09:16:39.965Z,16.06
2024-04-09T09:19:07.370Z,16.18
2024-04-09T09:21:37.062Z,15.94
2024-04-09T09:24:04.467Z,15.79
2024-04-09T09:26:34.075Z,15.59
2024-04-09T09:29:04.425Z,15.60
2024-04-09T09:31:36.672Z,15.46
2024-04-09T09:34:08.679Z,15.68
2024-04-09T09:36:40.503Z,15.82
2024-04-09T09:39:09.026Z,15.82
2024-04-09T09:41:39.114Z,15.59
2024-04-09T09:44:09.221Z,15.61
2024-04-09T09:46:43.172Z,15.71
2024-04-09T09:49:10.987Z,15.57
2024-04-09T09:51:41.062Z,15.61
2024-04-09T09:54:08.241Z,15.69
2024-04-09T09:56:39.840Z,16.11
2024-04-09T09:59:09.481Z,15.92
2024-04-09T10:01:43.077Z,15.85
2024-04-09T10:04:10.372Z,15.73
2024-04-09T10:06:40.117Z,15.70
2024-04-09T10:09:07.590Z,15.76
2024-04-09T10:11:45.447Z,15.82
2024-04-09T10:14:12.524Z,15.68
2024-04-09T10:16:44.656Z,15.73
2024-04-09T10:19:16.403Z,15.67
2024-04-09T10:21:46.090Z,15.75
2024-04-09T10:24:15.236Z,15.62
2024-04-09T10:26:45.873Z,15.67
2024-04-09T10:29:18.346Z,15.87
2024-04-09T10:31:53.743Z,15.67
2024-04-09T10:34:24.862Z,15.71
2024-04-09T10:36:54.982Z,15.57
2024-04-09T10:39:22.351Z,15.59
2024-04-09T10:41:57.621Z,15.75
2024-04-09T10:44:24.611Z,15.81
2024-04-09T10:46:56.836Z,15.77
2024-04-09T10:49:24.090Z,15.69
2024-04-09T10:51:53.844Z,15.68
2024-04-09T10:54:20.864Z,16.10
2024-04-09T10:56:50.360Z,16.23
2024-04-09T10:59:18.442Z,16.09
2024-04-09T11:01:48.047Z,15.82
2024-04-09T11:04:20.450Z,15.78
2024-04-09T11:06:51.716Z,15.66
2024-04-09T11:09:19.889Z,16.05
2024-04-09T11:11:49.922Z,16.02
2024-04-09T11:14:16.977Z,15.92
2024-04-09T11:16:50.153Z,15.92
2024-04-09T11:19:27.254Z,15.76
2024-04-09T11:21:57.140Z,15.92
2024-04-09T11:24:24.219Z,16.19
2024-04-09T11:26:53.914Z,16.03
2024-04-09T11:29:21.472Z,16.32
2024-04-09T11:31:51.365Z,16.21
2024-04-09T11:34:29.945Z,16.10
2024-04-09T11:37:00.932Z,16.13
2024-04-09T11:39:28.511Z,16.17
2024-04-09T11:41:58.341Z,16.15
2024-04-09T11:44:25.932Z,16.15
2024-04-09T11:46:55.537Z,16.25
2024-04-09T11:49:23.021Z,16.12
2024-04-09T11:51:55.452Z,16.00
2024-04-09T11:54:22.459Z,15.92
2024-04-09T11:56:51.983Z,15.95
2024-04-09T11:59:19.563Z,16.04
2024-04-09T12:01:49.165Z,16.07
2024-04-09T12:04:17.456Z,15.96
2024-04-09T12:06:47.110Z,15.85
2024-04-09T12:09:16.647Z,15.69
2024-04-09T12:11:46.274Z,15.93
2024-04-09T12:14:13.640Z,16.21
2024-04-09T12:16:44.894Z,16.13
2024-04-09T12:19:12.251Z,16.53
2024-04-09T12:21:42.188Z,16.16
2024-04-09T12:24:09.216Z,16.15
2024-04-09T12:26:43.169Z,15.89
2024-04-09T12:29:10.072Z,15.71
2024-04-09T12:31:39.640Z,15.76
2024-04-09T12:34:06.674Z,16.05
2024-04-09T12:36:36.498Z,15.79
2024-04-09T12:39:03.609Z,15.86
2024-04-09T12:41:33.629Z,16.01
2024-04-09T12:44:03.223Z,15.82
2024-04-09T12:46:32.712Z,16.13
2024-04-09T12:49:10.711Z,15.81
2024-04-09T12:51:49.501Z,15.87
2024-04-09T12:54:16.489Z,15.96
2024-04-09T12:56:46.069Z,15.78
2024-04-09T12:59:26.015Z,15.71
2024-04-09T13:02:00.057Z,15.71
2024-04-09T13:04:29.018Z,15.66
2024-04-09T13:06:58.743Z,15.74
2024-04-09T13:09:25.755Z,16.41
2024-04-09T13:11:55.334Z,16.08
2024-04-09T13:14:24.861Z,16.07
2024-04-09T13:16:56.709Z,16.09
2024-04-09T13:19:25.985Z,15.97
2024-04-09T13:21:55.624Z,16.08
2024-04-09T13:24:22.558Z,15.99
2024-04-09T13:26:52.100Z,16.27
2024-04-09T13:29:19.332Z,16.22
2024-04-09T13:31:51.861Z,16.26
2024-04-09T13:34:22.799Z,15.99
2024-04-09T13:36:53.303Z,15.79
2024-04-09T13:39:23.133Z,15.85
2024-04-09T13:41:52.955Z,15.80
2024-04-09T13:44:20.259Z,16.01
2024-04-09T13:46:52.725Z,15.80
2024-04-09T13:49:20.278Z,15.65
2024-04-09T13:51:50.009Z,15.78
2024-04-09T13:54:16.946Z,15.60
2024-04-09T13:56:46.838Z,15.61
2024-04-09T13:59:14.457Z,15.54
2024-04-09T14:01:44.362Z,15.51
2024-04-09T14:04:16.159Z,15.50
2024-04-09T14:06:46.053Z,15.66
2024-04-09T14:09:15.045Z,15.70
2024-04-09T14:11:44.927Z,15.54
2024-04-09T14:14:13.049Z,15.46
2024-04-09T14:16:42.654Z,15.51
2024-04-09T14:19:13.773Z,15.54
2024-04-09T14:21:46.643Z,15.41
2024-04-09T14:24:14.437Z,15.69
2024-04-09T14:26:43.966Z,15.53
2024-04-09T14:29:11.833Z,15.44
2024-04-09T14:31:42.106Z,15.37
2024-04-09T14:34:09.645Z,15.37
2024-04-09T14:36:39.310Z,15.44
2024-04-09T14:39:08.878Z,15.40
2024-04-09T14:41:38.525Z,15.42
2024-04-09T14:44:07.148Z,15.41
2024-04-09T14:46:36.698Z,15.55
2024-04-09T14:49:03.979Z,15.42
2024-04-09T14:51:33.601Z,15.39
2024-04-09T14:54:00.566Z,15.44
2024-04-09T14:56:32.856Z,15.39
2024-04-09T14:58:59.974Z,15.39
2024-04-09T15:01:29.564Z,15.29
2024-04-09T15:03:56.596Z,15.32
2024-04-09T15:06:26.355Z,15.22
2024-04-09T15:08:54.082Z,15.24
2024-04-09T15:11:23.783Z,15.22
2024-04-09T15:13:54.853Z,15.34
2024-04-09T15:16:24.470Z,15.25
2024-04-09T15:18:54.820Z,15.29
2024-04-09T15:21:24.650Z,15.24
2024-04-09T15:23:51.540Z,15.27
2024-04-09T15:26:21.134Z,15.25
2024-04-09T15:28:48.046Z,15.19
2024-04-09T15:31:20.229Z,15.17
2024-04-09T15:33:47.248Z,15.14
2024-04-09T15:36:17.319Z,15.13
2024-04-09T15:38:44.241Z,15.10
2024-04-09T15:41:14.083Z,15.07
2024-04-09T15:43:41.116Z,15.08
2024-04-09T15:46:10.692Z,15.19
2024-04-09T15:48:40.375Z,15.12
2024-04-09T15:51:09.971Z,15.08
2024-04-09T15:53:36.930Z,15.07
2024-04-09T15:56:07.400Z,15.06
2024-04-09T15:58:34.344Z,15.02
2024-04-09T16:01:03.924Z,15.01
2024-04-09T16:03:31.414Z,15.25
2024-04-09T16:06:03.690Z,15.13
2024-04-09T16:08:33.107Z,15.04
2024-04-09T16:11:05.163Z,15.04
2024-04-09T16:13:34.295Z,15.04
2024-04-09T16:16:09.297Z,15.01
2024-04-09T16:18:36.649Z,14.97
2024-04-09T16:21:09.680Z,15.01
2024-04-09T16:23:37.601Z,14.97
2024-04-09T16:26:09.725Z,15.01
2024-04-09T16:28:37.335Z,14.98
2024-04-09T16:31:07.432Z,14.94
2024-04-09T16:33:34.638Z,14.93
2024-04-09T16:36:04.677Z,14.93
2024-04-09T16:38:34.496Z,14.91
2024-04-09T16:41:04.210Z,14.90
2024-04-09T16:43:31.085Z,14.83
2024-04-09T16:46:00.716Z,14.80
2024-04-09T16:48:27.874Z,14.78
2024-04-09T16:50:58.722Z,14.76
2024-04-09T16:53:25.744Z,14.73
2024-04-09T16:56:04.467Z,14.70
2024-04-09T16:58:31.937Z,14.71
2024-04-09T17:01:02.837Z,14.72
2024-04-09T17:03:30.777Z,14.71
2024-04-09T17:06:00.450Z,14.72
2024-04-09T17:08:27.403Z,14.73
2024-04-09T17:11:03.601Z,14.72
2024-04-09T17:13:31.189Z,14.69
2024-04-09T17:16:00.750Z,14.70
2024-04-09T17:18:28.120Z,14.69
2024-04-09T17:20:57.725Z,14.68
2024-04-09T17:23:26.394Z,14.69
2024-04-09T17:26:05.619Z,14.69
2024-04-09T17:28:33.014Z,14.78
2024-04-09T17:31:02.869Z,14.73
2024-04-09T17:33:29.936Z,14.67
2024-04-09T17:35:59.511Z,14.61
2024-04-09T17:38:26.487Z,14.58
2024-04-09T17:40:56.491Z,14.53
2024-04-09T17:43:28.769Z,14.51
2024-04-09T17:45:56.425Z,14.48
2024-04-09T17:48:26.626Z,14.47
2024-04-09T17:50:53.681Z,14.45
2024-04-09T17:53:23.270Z,14.45
2024-04-09T17:55:50.292Z,14.45
2024-04-09T17:58:19.822Z,14.45
2024-04-09T18:00:49.503Z,14.47
2024-04-09T18:03:22.973Z,14.49
2024-04-09T18:05:50.300Z,14.51
2024-04-09T18:08:20.097Z,14.54
2024-04-09T18:10:47.277Z,14.55
2024-04-09T18:13:17.150Z,14.53
2024-04-09T18:15:46.023Z,14.56
2024-04-09T18:18:18.428Z,14.57
2024-04-09T18:20:45.340Z,14.57
2024-04-09T18:23:16.180Z,14.57
2024-04-09T18:25:43.156Z,14.56
2024-04-09T18:28:12.673Z,14.54
2024-04-09T18:30:39.551Z,14.54
2024-04-09T18:33:09.181Z,14.55
2024-04-09T18:35:41.581Z,14.57
2024-04-09T18:38:11.152Z,14.54
2024-04-09T18:40:38.035Z,14.53
2024-04-09T18:43:07.706Z,14.52
2024-04-09T18:45:35.101Z,14.52
2024-04-09T18:48:04.847Z,14.49
2024-04-09T18:50:31.974Z,14.49
2024-04-09T18:53:04.260Z,14.47
2024-04-09T18:55:31.219Z,14.47
2024-04-09T18:58:00.721Z,14.45
2024-04-09T19:00:27.598Z,14.49
2024-04-09T19:02:57.126Z,14.52
2024-04-09T19:05:24.078Z,14.44
2024-04-09T19:07:53.939Z,14.40
2024-04-09T19:10:23.536Z,14.37
2024-04-09T19:12:53.824Z,14.30
2024-04-09T19:15:21.091Z,14.30
2024-04-09T19:17:50.673Z,14.28
2024-04-09T19:20:17.827Z,14.26
2024-04-09T19:22:49.702Z,14.24
2024-04-09T19:25:17.971Z,14.22
2024-04-09T19:27:50.131Z,14.19
2024-04-09T19:30:17.178Z,14.18
2024-04-09T19:32:46.850Z,14.16
2024-04-09T19:35:13.937Z,14.13
2024-04-09T19:37:43.514Z,14.12
2024-04-09T19:40:12.081Z,14.12
2024-04-09T19:42:41.719Z,14.10
2024-04-09T19:45:13.956Z,14.10
2024-04-09T19:47:41.037Z,14.08
2024-04-09T19:50:12.031Z,14.07
2024-04-09T19:52:38.973Z,14.05
2024-04-09T19:55:09.307Z,14.05
2024-04-09T19:57:37.025Z,14.03
2024-04-09T20:00:08.252Z,14.02
2024-04-09T20:02:38.800Z,14.00
2024-04-09T20:05:08.978Z,13.99
2024-04-09T20:07:37.573Z,13.99
2024-04-09T20:10:08.287Z,14.00
2024-04-09T20:12:36.655Z,14.04
2024-04-09T20:15:07.166Z,14.04
2024-04-09T20:17:34.270Z,14.06
2024-04-09T20:20:07.588Z,14.03
2024-04-09T20:22:34.542Z,14.05
2024-04-09T20:25:04.141Z,14.04
2024-04-09T20:27:31.455Z,14.03
2024-04-09T20:30:01.010Z,14.01
2024-04-09T20:32:28.139Z,14.02
2024-04-09T20:34:57.826Z,14.02
2024-04-09T20:37:27.356Z,14.03
2024-04-09T20:39:56.837Z,14.01
2024-04-09T20:42:24.390Z,14.01
2024-04-09T20:44:54.103Z,13.99
2024-04-09T20:47:21.203Z,13.99
2024-04-09T20:49:50.910Z,13.96
2024-04-09T20:52:17.989Z,13.93
2024-04-09T20:54:51.553Z,13.91
2024-04-09T20:57:18.472Z,13.90
2024-04-09T20:59:48.086Z,13.87
2024-04-09T21:02:15.077Z,13.84
2024-04-09T21:04:44.759Z,13.82
2024-04-09T21:07:11.689Z,13.86
2024-04-09T21:09:41.234Z,13.87
2024-04-09T21:12:11.402Z,13.89
2024-04-09T21:14:41.173Z,13.87
2024-04-09T21:17:08.168Z,13.87
2024-04-09T21:19:37.757Z,13.85
2024-04-09T21:22:05.005Z,13.88
2024-04-09T21:24:34.496Z,13.89
2024-04-09T21:27:01.368Z,13.90
2024-04-09T21:29:33.511Z,13.89
2024-04-09T21:32:00.456Z,13.90
2024-04-09T21:34:30.004Z,13.87
2024-04-09T21:36:57.285Z,13.83
2024-04-09T21:39:26.849Z,13.84
2024-04-09T21:41:53.764Z,13.84
2024-04-09T21:44:23.581Z,13.82
2024-04-09T21:46:53.289Z,13.79
2024-04-09T21:49:22.941Z,13.78
2024-04-09T21:51:50.167Z,13.75
2024-04-09T21:54:20.000Z,13.75
2024-04-09T21:56:46.999Z,13.72
2024-04-09T21:59:16.559Z,13.69
2024-04-09T22:01:43.477Z,13.69
2024-04-09T22:04:15.648Z,13.68
2024-04-09T22:06:42.534Z,13.67
2024-04-09T22:09:12.076Z,13.66
2024-04-09T22:11:39.068Z,13.66
2024-04-09T22:14:08.886Z,13.66
2024-04-09T22:16:35.813Z,13.64
2024-04-09T22:19:05.402Z,13.64
2024-04-09T22:21:34.985Z,13.63
2024-04-09T22:24:04.515Z,13.63
2024-04-09T22:26:32.133Z,13.62
2024-04-09T22:29:01.974Z,13.61
2024-04-09T22:31:28.910Z,13.58
2024-04-09T22:33:58.475Z,13.57
2024-04-09T22:36:25.599Z,13.56
2024-04-09T22:38:58.470Z,13.50
2024-04-09T22:41:25.536Z,13.52
2024-04-09T22:43:55.126Z,13.50
2024-04-09T22:46:22.049Z,13.48
2024-04-09T22:48:51.988Z,13.48
2024-04-09T22:51:19.067Z,13.45
2024-04-09T22:53:48.557Z,13.45
2024-04-09T22:56:18.156Z,13.41
2024-04-09T22:58:47.742Z,13.41
2024-04-09T23:01:15.124Z,13.39
2024-04-09T23:03:45.111Z,13.35
2024-04-09T23:06:12.640Z,13.33
2024-04-09T23:08:42.293Z,13.34
2024-04-09T23:11:11.660Z,13.32
2024-04-09T23:13:44.074Z,13.30
2024-04-09T23:16:13.620Z,13.31
2024-04-09T23:18:43.462Z,13.28
2024-04-09T23:21:10.522Z,13.28
2024-04-09T23:23:40.266Z,13.27
2024-04-09T23:26:07.417Z,13.24
2024-04-09T23:28:37.508Z,13.23
2024-04-09T23:31:07.425Z,13.19
2024-04-09T23:33:37.209Z,13.21
2024-04-09T23:36:07.399Z,13.20
2024-04-09T23:38:37.637Z,13.20
2024-04-09T23:41:04.969Z,13.19
2024-04-09T23:43:34.637Z,13.15
2024-04-09T23:46:01.627Z,13.12
2024-04-09T23:48:34.121Z,13.16
2024-04-09T23:51:02.658Z,13.15
2024-04-09T23:53:32.297Z,13.14
2024-04-09T23:56:00.730Z,13.14
2024-04-09T23:58:30.435Z,13.12
